sensor_id;sensor_type;location;lat;lon;timestamp;P1;durP1;ratioP1;P2;durP2;ratioP2
1987;SDS011;12775;46.994;15.498;2023-12-20T00:01:30;29.96;;;23.28;;
1987;SDS011;12775;46.994;15.498;2023-12-20T00:03:58;30.02;;;21.40;;
1987;SDS011;12775;46.994;15.498;2023-12-20T00:06:25;26.30;;;20.30;;
1987;SDS011;12775;46.994;15.498;2023-12-20T00:08:52;29.88;;;19.90;;
1987;SDS011;12775;46.994;15.498;2023-12-20T00:11:20;23.94;;;18.84;;
1987;SDS011;12775;46.994;15.498;2023-12-20T00:13:47;31.56;;;19.48;;
1987;SDS011;12775;46.994;15.498;2023-12-20T00:16:14;25.24;;;17.72;;
1987;SDS011;12775;46.994;15.498;2023-12-20T00:18:41;27.54;;;19.90;;
1987;SDS011;12775;46.994;15.498;2023-12-20T00:21:08;25.18;;;18.94;;
1987;SDS011;12775;46.994;15.498;2023-12-20T00:23:34;22.46;;;19.12;;
1987;SDS011;12775;46.994;15.498;2023-12-20T00:26:01;24.46;;;18.84;;
1987;SDS011;12775;46.994;15.498;2023-12-20T00:28:28;26.52;;;18.54;;
1987;SDS011;12775;46.994;15.498;2023-12-20T00:30:55;30.36;;;20.54;;
1987;SDS011;12775;46.994;15.498;2023-12-20T00:33:23;28.58;;;19.90;;
1987;SDS011;12775;46.994;15.498;2023-12-20T00:35:50;26.02;;;17.50;;
1987;SDS011;12775;46.994;15.498;2023-12-20T00:38:19;25.28;;;20.94;;
1987;SDS011;12775;46.994;15.498;2023-12-20T00:40:46;28.88;;;19.56;;
1987;SDS011;12775;46.994;15.498;2023-12-20T00:43:13;32.38;;;22.66;;
1987;SDS011;12775;46.994;15.498;2023-12-20T00:45:41;32.46;;;23.72;;
1987;SDS011;12775;46.994;15.498;2023-12-20T00:48:08;38.16;;;24.34;;
1987;SDS011;12775;46.994;15.498;2023-12-20T00:50:35;30.42;;;22.46;;
1987;SDS011;12775;46.994;15.498;2023-12-20T00:53:03;34.56;;;24.50;;
1987;SDS011;12775;46.994;15.498;2023-12-20T00:55:29;30.62;;;21.92;;
1987;SDS011;12775;46.994;15.498;2023-12-20T00:57:56;28.14;;;20.78;;
1987;SDS011;12775;46.994;15.498;2023-12-20T01:00:23;28.52;;;19.52;;
1987;SDS011;12775;46.994;15.498;2023-12-20T01:02:50;31.02;;;20.12;;
1987;SDS011;12775;46.994;15.498;2023-12-20T01:05:18;32.04;;;19.10;;
1987;SDS011;12775;46.994;15.498;2023-12-20T01:07:45;30.30;;;18.44;;
1987;SDS011;12775;46.994;15.498;2023-12-20T01:10:12;25.06;;;18.94;;
1987;SDS011;12775;46.994;15.498;2023-12-20T01:12:39;21.08;;;17.10;;
1987;SDS011;12775;46.994;15.498;2023-12-20T01:15:07;25.02;;;17.40;;
1987;SDS011;12775;46.994;15.498;2023-12-20T01:17:36;21.54;;;17.60;;
1987;SDS011;12775;46.994;15.498;2023-12-20T01:20:03;28.04;;;18.80;;
1987;SDS011;12775;46.994;15.498;2023-12-20T01:22:31;23.24;;;17.16;;
1987;SDS011;12775;46.994;15.498;2023-12-20T01:24:58;24.92;;;18.88;;
1987;SDS011;12775;46.994;15.498;2023-12-20T01:27:25;28.12;;;18.70;;
1987;SDS011;12775;46.994;15.498;2023-12-20T01:29:53;32.44;;;19.56;;
1987;SDS011;12775;46.994;15.498;2023-12-20T01:32:19;24.02;;;17.98;;
1987;SDS011;12775;46.994;15.498;2023-12-20T01:34:47;25.40;;;18.24;;
1987;SDS011;12775;46.994;15.498;2023-12-20T01:37:14;21.98;;;16.72;;
1987;SDS011;12775;46.994;15.498;2023-12-20T01:39:42;28.42;;;19.08;;
1987;SDS011;12775;46.994;15.498;2023-12-20T01:42:09;24.42;;;18.00;;
1987;SDS011;12775;46.994;15.498;2023-12-20T01:44:36;21.96;;;17.56;;
1987;SDS011;12775;46.994;15.498;2023-12-20T01:47:04;26.68;;;17.42;;
1987;SDS011;12775;46.994;15.498;2023-12-20T01:49:31;26.92;;;18.54;;
1987;SDS011;12775;46.994;15.498;2023-12-20T01:51:58;27.46;;;18.92;;
1987;SDS011;12775;46.994;15.498;2023-12-20T01:54:26;27.52;;;18.74;;
1987;SDS011;12775;46.994;15.498;2023-12-20T01:56:53;21.72;;;17.94;;
1987;SDS011;12775;46.994;15.498;2023-12-20T01:59:21;26.34;;;18.32;;
1987;SDS011;12775;46.994;15.498;2023-12-20T02:01:48;21.54;;;16.18;;
1987;SDS011;12775;46.994;15.498;2023-12-20T02:04:15;24.50;;;16.56;;
1987;SDS011;12775;46.994;15.498;2023-12-20T02:06:44;23.34;;;16.76;;
1987;SDS011;12775;46.994;15.498;2023-12-20T02:09:11;30.32;;;16.16;;
1987;SDS011;12775;46.994;15.498;2023-12-20T02:11:38;20.36;;;16.30;;
1987;SDS011;12775;46.994;15.498;2023-12-20T02:14:06;21.28;;;15.98;;
1987;SDS011;12775;46.994;15.498;2023-12-20T02:16:33;22.48;;;16.08;;
1987;SDS011;12775;46.994;15.498;2023-12-20T02:19:02;19.32;;;15.56;;
1987;SDS011;12775;46.994;15.498;2023-12-20T02:21:32;20.52;;;16.80;;
1987;SDS011;12775;46.994;15.498;2023-12-20T02:23:58;23.82;;;17.98;;
1987;SDS011;12775;46.994;15.498;2023-12-20T02:26:26;22.98;;;15.40;;
1987;SDS011;12775;46.994;15.498;2023-12-20T02:28:54;20.20;;;15.62;;
1987;SDS011;12775;46.994;15.498;2023-12-20T02:31:22;20.74;;;16.24;;
1987;SDS011;12775;46.994;15.498;2023-12-20T02:33:49;22.82;;;16.36;;
1987;SDS011;12775;46.994;15.498;2023-12-20T02:36:16;18.86;;;15.52;;
1987;SDS011;12775;46.994;15.498;2023-12-20T02:38:43;23.86;;;16.44;;
1987;SDS011;12775;46.994;15.498;2023-12-20T02:41:11;19.12;;;15.52;;
1987;SDS011;12775;46.994;15.498;2023-12-20T02:43:38;24.28;;;16.00;;
1987;SDS011;12775;46.994;15.498;2023-12-20T02:46:06;16.86;;;13.18;;
1987;SDS011;12775;46.994;15.498;2023-12-20T02:48:33;15.78;;;12.46;;
1987;SDS011;12775;46.994;15.498;2023-12-20T02:51:00;18.22;;;13.80;;
1987;SDS011;12775;46.994;15.498;2023-12-20T02:53:28;19.44;;;14.66;;
1987;SDS011;12775;46.994;15.498;2023-12-20T02:55:56;21.04;;;14.48;;
1987;SDS011;12775;46.994;15.498;2023-12-20T02:58:23;21.58;;;14.58;;
1987;SDS011;12775;46.994;15.498;2023-12-20T03:00:51;15.34;;;12.12;;
1987;SDS011;12775;46.994;15.498;2023-12-20T03:03:18;20.50;;;13.36;;
1987;SDS011;12775;46.994;15.498;2023-12-20T03:05:45;14.72;;;12.38;;
1987;SDS011;12775;46.994;15.498;2023-12-20T03:08:13;22.70;;;14.06;;
1987;SDS011;12775;46.994;15.498;2023-12-20T03:10:40;19.52;;;15.78;;
1987;SDS011;12775;46.994;15.498;2023-12-20T03:13:07;19.58;;;14.38;;
1987;SDS011;12775;46.994;15.498;2023-12-20T03:15:35;15.06;;;13.28;;
1987;SDS011;12775;46.994;15.498;2023-12-20T03:18:02;17.92;;;12.72;;
1987;SDS011;12775;46.994;15.498;2023-12-20T03:20:30;17.66;;;13.52;;
1987;SDS011;12775;46.994;15.498;2023-12-20T03:22:57;18.78;;;14.10;;
1987;SDS011;12775;46.994;15.498;2023-12-20T03:25:24;20.36;;;13.66;;
1987;SDS011;12775;46.994;15.498;2023-12-20T03:27:52;17.64;;;11.02;;
1987;SDS011;12775;46.994;15.498;2023-12-20T03:30:19;16.40;;;12.36;;
1987;SDS011;12775;46.994;15.498;2023-12-20T03:32:47;15.64;;;12.70;;
1987;SDS011;12775;46.994;15.498;2023-12-20T03:35:14;16.60;;;11.96;;
1987;SDS011;12775;46.994;15.498;2023-12-20T03:37:41;18.20;;;13.88;;
1987;SDS011;12775;46.994;15.498;2023-12-20T03:40:09;16.98;;;13.82;;
1987;SDS011;12775;46.994;15.498;2023-12-20T03:42:37;20.76;;;14.38;;
1987;SDS011;12775;46.994;15.498;2023-12-20T03:45:03;18.66;;;13.40;;
1987;SDS011;12775;46.994;15.498;2023-12-20T03:47:30;20.66;;;13.86;;
1987;SDS011;12775;46.994;15.498;2023-12-20T03:49:57;21.02;;;14.34;;
1987;SDS011;12775;46.994;15.498;2023-12-20T03:52:25;21.42;;;15.62;;
1987;SDS011;12775;46.994;15.498;2023-12-20T03:54:53;20.22;;;13.48;;
1987;SDS011;12775;46.994;15.498;2023-12-20T03:57:20;30.42;;;15.02;;
1987;SDS011;12775;46.994;15.498;2023-12-20T03:59:47;18.58;;;14.04;;
1987;SDS011;12775;46.994;15.498;2023-12-20T04:02:14;20.42;;;13.38;;
1987;SDS011;12775;46.994;15.498;2023-12-20T04:04:42;18.60;;;13.26;;
1987;SDS011;12775;46.994;15.498;2023-12-20T04:07:09;18.78;;;11.36;;
1987;SDS011;12775;46.994;15.498;2023-12-20T04:09:36;12.30;;;10.44;;
1987;SDS011;12775;46.994;15.498;2023-12-20T04:12:04;15.62;;;11.20;;
1987;SDS011;12775;46.994;15.498;2023-12-20T04:14:33;15.28;;;13.14;;
1987;SDS011;12775;46.994;15.498;2023-12-20T04:17:00;11.36;;;9.52;;
1987;SDS011;12775;46.994;15.498;2023-12-20T04:19:27;14.22;;;10.46;;
1987;SDS011;12775;46.994;15.498;2023-12-20T04:21:55;15.58;;;10.18;;
1987;SDS011;12775;46.994;15.498;2023-12-20T04:24:22;13.78;;;10.94;;
1987;SDS011;12775;46.994;15.498;2023-12-20T04:26:50;14.48;;;10.26;;
1987;SDS011;12775;46.994;15.498;2023-12-20T04:29:17;17.20;;;11.04;;
1987;SDS011;12775;46.994;15.498;2023-12-20T04:31:44;18.76;;;12.42;;
1987;SDS011;12775;46.994;15.498;2023-12-20T04:34:12;22.80;;;17.06;;
1987;SDS011;12775;46.994;15.498;2023-12-20T04:36:40;24.52;;;19.14;;
1987;SDS011;12775;46.994;15.498;2023-12-20T04:39:07;15.78;;;11.44;;
1987;SDS011;12775;46.994;15.498;2023-12-20T04:41:35;14.88;;;10.50;;
1987;SDS011;12775;46.994;15.498;2023-12-20T04:44:02;47.42;;;34.30;;
1987;SDS011;12775;46.994;15.498;2023-12-20T04:46:29;24.32;;;18.08;;
1987;SDS011;12775;46.994;15.498;2023-12-20T04:48:57;15.18;;;11.40;;
1987;SDS011;12775;46.994;15.498;2023-12-20T04:51:25;13.36;;;10.62;;
1987;SDS011;12775;46.994;15.498;2023-12-20T04:53:53;15.64;;;11.04;;
1987;SDS011;12775;46.994;15.498;2023-12-20T04:56:20;12.22;;;10.88;;
1987;SDS011;12775;46.994;15.498;2023-12-20T04:58:47;14.88;;;10.92;;
1987;SDS011;12775;46.994;15.498;2023-12-20T05:01:15;18.08;;;11.52;;
1987;SDS011;12775;46.994;15.498;2023-12-20T05:03:42;13.18;;;10.98;;
1987;SDS011;12775;46.994;15.498;2023-12-20T05:06:09;15.28;;;11.00;;
1987;SDS011;12775;46.994;15.498;2023-12-20T05:08:37;13.46;;;11.56;;
1987;SDS011;12775;46.994;15.498;2023-12-20T05:11:04;15.22;;;11.14;;
1987;SDS011;12775;46.994;15.498;2023-12-20T05:13:32;16.68;;;11.68;;
1987;SDS011;12775;46.994;15.498;2023-12-20T05:15:59;16.08;;;10.94;;
1987;SDS011;12775;46.994;15.498;2023-12-20T05:18:26;17.08;;;10.86;;
1987;SDS011;12775;46.994;15.498;2023-12-20T05:20:54;21.16;;;11.20;;
1987;SDS011;12775;46.994;15.498;2023-12-20T05:23:21;16.34;;;11.18;;
1987;SDS011;12775;46.994;15.498;2023-12-20T05:25:49;19.28;;;15.56;;
1987;SDS011;12775;46.994;15.498;2023-12-20T05:28:16;20.66;;;13.90;;
1987;SDS011;12775;46.994;15.498;2023-12-20T05:30:43;22.22;;;14.88;;
1987;SDS011;12775;46.994;15.498;2023-12-20T05:33:11;21.28;;;16.26;;
1987;SDS011;12775;46.994;15.498;2023-12-20T05:35:38;22.12;;;14.18;;
1987;SDS011;12775;46.994;15.498;2023-12-20T05:38:05;17.92;;;13.22;;
1987;SDS011;12775;46.994;15.498;2023-12-20T05:40:33;17.36;;;12.20;;
1987;SDS011;12775;46.994;15.498;2023-12-20T05:43:00;18.16;;;14.30;;
1987;SDS011;12775;46.994;15.498;2023-12-20T05:45:28;19.84;;;13.10;;
1987;SDS011;12775;46.994;15.498;2023-12-20T05:47:55;23.54;;;13.44;;
1987;SDS011;12775;46.994;15.498;2023-12-20T05:50:22;19.56;;;11.82;;
1987;SDS011;12775;46.994;15.498;2023-12-20T05:52:50;13.76;;;9.82;;
1987;SDS011;12775;46.994;15.498;2023-12-20T05:55:17;13.60;;;10.68;;
1987;SDS011;12775;46.994;15.498;2023-12-20T05:57:44;14.24;;;10.36;;
1987;SDS011;12775;46.994;15.498;2023-12-20T06:00:12;22.28;;;11.46;;
1987;SDS011;12775;46.994;15.498;2023-12-20T06:02:39;34.68;;;22.72;;
1987;SDS011;12775;46.994;15.498;2023-12-20T06:05:07;24.00;;;18.42;;
1987;SDS011;12775;46.994;15.498;2023-12-20T06:07:34;21.84;;;17.32;;
1987;SDS011;12775;46.994;15.498;2023-12-20T06:10:01;19.02;;;12.38;;
1987;SDS011;12775;46.994;15.498;2023-12-20T06:12:28;52.88;;;36.32;;
1987;SDS011;12775;46.994;15.498;2023-12-20T06:14:56;28.18;;;18.10;;
1987;SDS011;12775;46.994;15.498;2023-12-20T06:17:23;27.66;;;19.84;;
1987;SDS011;12775;46.994;15.498;2023-12-20T06:19:50;26.44;;;19.56;;
1987;SDS011;12775;46.994;15.498;2023-12-20T06:22:17;18.92;;;14.98;;
1987;SDS011;12775;46.994;15.498;2023-12-20T06:24:44;16.80;;;11.16;;
1987;SDS011;12775;46.994;15.498;2023-12-20T06:27:12;21.04;;;12.94;;
1987;SDS011;12775;46.994;15.498;2023-12-20T06:29:39;14.00;;;11.30;;
1987;SDS011;12775;46.994;15.498;2023-12-20T06:32:06;27.18;;;10.48;;
1987;SDS011;12775;46.994;15.498;2023-12-20T06:34:35;16.02;;;10.36;;
1987;SDS011;12775;46.994;15.498;2023-12-20T06:37:02;13.08;;;10.54;;
1987;SDS011;12775;46.994;15.498;2023-12-20T06:39:30;17.76;;;12.22;;
1987;SDS011;12775;46.994;15.498;2023-12-20T06:41:57;16.86;;;13.08;;
1987;SDS011;12775;46.994;15.498;2023-12-20T06:44:24;19.34;;;11.90;;
1987;SDS011;12775;46.994;15.498;2023-12-20T06:46:51;25.08;;;15.00;;
1987;SDS011;12775;46.994;15.498;2023-12-20T06:49:18;20.12;;;13.24;;
1987;SDS011;12775;46.994;15.498;2023-12-20T06:51:45;17.30;;;13.78;;
1987;SDS011;12775;46.994;15.498;2023-12-20T06:54:13;16.02;;;13.06;;
1987;SDS011;12775;46.994;15.498;2023-12-20T06:56:40;19.28;;;15.64;;
1987;SDS011;12775;46.994;15.498;2023-12-20T06:59:07;24.58;;;16.90;;
1987;SDS011;12775;46.994;15.498;2023-12-20T07:01:35;21.34;;;15.30;;
1987;SDS011;12775;46.994;15.498;2023-12-20T07:04:02;27.80;;;16.52;;
1987;SDS011;12775;46.994;15.498;2023-12-20T07:06:29;24.24;;;15.76;;
1987;SDS011;12775;46.994;15.498;2023-12-20T07:08:57;20.14;;;14.60;;
1987;SDS011;12775;46.994;15.498;2023-12-20T07:11:24;25.88;;;15.90;;
1987;SDS011;12775;46.994;15.498;2023-12-20T07:13:51;33.86;;;16.44;;
1987;SDS011;12775;46.994;15.498;2023-12-20T07:16:19;30.16;;;19.44;;
1987;SDS011;12775;46.994;15.498;2023-12-20T07:18:46;43.10;;;25.00;;
1987;SDS011;12775;46.994;15.498;2023-12-20T07:21:14;28.08;;;20.66;;
1987;SDS011;12775;46.994;15.498;2023-12-20T07:23:41;25.64;;;19.94;;
1987;SDS011;12775;46.994;15.498;2023-12-20T07:26:08;37.38;;;21.10;;
1987;SDS011;12775;46.994;15.498;2023-12-20T07:28:36;25.86;;;19.36;;
1987;SDS011;12775;46.994;15.498;2023-12-20T07:31:04;35.20;;;19.70;;
1987;SDS011;12775;46.994;15.498;2023-12-20T07:33:32;24.84;;;18.00;;
1987;SDS011;12775;46.994;15.498;2023-12-20T07:36:00;27.32;;;17.24;;
1987;SDS011;12775;46.994;15.498;2023-12-20T07:38:28;23.92;;;17.70;;
1987;SDS011;12775;46.994;15.498;2023-12-20T07:40:56;33.82;;;21.90;;
1987;SDS011;12775;46.994;15.498;2023-12-20T07:43:24;26.60;;;18.96;;
1987;SDS011;12775;46.994;15.498;2023-12-20T07:45:51;31.66;;;20.30;;
1987;SDS011;12775;46.994;15.498;2023-12-20T07:48:18;27.96;;;18.60;;
1987;SDS011;12775;46.994;15.498;2023-12-20T07:50:46;28.64;;;20.72;;
1987;SDS011;12775;46.994;15.498;2023-12-20T07:53:13;27.26;;;18.38;;
1987;SDS011;12775;46.994;15.498;2023-12-20T07:55:40;27.04;;;18.76;;
1987;SDS011;12775;46.994;15.498;2023-12-20T07:58:09;27.54;;;19.28;;
1987;SDS011;12775;46.994;15.498;2023-12-20T08:00:36;22.70;;;17.48;;
1987;SDS011;12775;46.994;15.498;2023-12-20T08:03:04;27.00;;;17.74;;
1987;SDS011;12775;46.994;15.498;2023-12-20T08:05:31;21.08;;;16.58;;
1987;SDS011;12775;46.994;15.498;2023-12-20T08:07:58;24.26;;;18.96;;
1987;SDS011;12775;46.994;15.498;2023-12-20T08:10:26;30.04;;;18.70;;
1987;SDS011;12775;46.994;15.498;2023-12-20T08:12:53;27.96;;;17.76;;
1987;SDS011;12775;46.994;15.498;2023-12-20T08:15:20;19.96;;;17.74;;
1987;SDS011;12775;46.994;15.498;2023-12-20T08:17:48;32.38;;;18.82;;
1987;SDS011;12775;46.994;15.498;2023-12-20T08:20:16;23.46;;;17.70;;
1987;SDS011;12775;46.994;15.498;2023-12-20T08:22:43;26.28;;;19.56;;
1987;SDS011;12775;46.994;15.498;2023-12-20T08:25:10;22.84;;;18.92;;
1987;SDS011;12775;46.994;15.498;2023-12-20T08:27:39;25.60;;;19.30;;
1987;SDS011;12775;46.994;15.498;2023-12-20T08:30:08;27.00;;;19.98;;
1987;SDS011;12775;46.994;15.498;2023-12-20T08:32:36;26.90;;;18.52;;
1987;SDS011;12775;46.994;15.498;2023-12-20T08:35:03;32.04;;;20.34;;
1987;SDS011;12775;46.994;15.498;2023-12-20T08:37:31;26.12;;;17.98;;
1987;SDS011;12775;46.994;15.498;2023-12-20T08:39:58;27.84;;;20.58;;
1987;SDS011;12775;46.994;15.498;2023-12-20T08:42:24;20.90;;;16.54;;
1987;SDS011;12775;46.994;15.498;2023-12-20T08:44:52;25.92;;;19.56;;
1987;SDS011;12775;46.994;15.498;2023-12-20T08:47:19;20.70;;;17.74;;
1987;SDS011;12775;46.994;15.498;2023-12-20T08:49:46;29.58;;;20.18;;
1987;SDS011;12775;46.994;15.498;2023-12-20T08:52:14;24.82;;;19.52;;
1987;SDS011;12775;46.994;15.498;2023-12-20T08:54:41;27.30;;;18.72;;
1987;SDS011;12775;46.994;15.498;2023-12-20T08:57:08;26.38;;;19.16;;
1987;SDS011;12775;46.994;15.498;2023-12-20T08:59:36;23.00;;;19.92;;
1987;SDS011;12775;46.994;15.498;2023-12-20T09:02:03;24.18;;;20.68;;
1987;SDS011;12775;46.994;15.498;2023-12-20T09:04:31;23.36;;;19.02;;
1987;SDS011;12775;46.994;15.498;2023-12-20T09:06:59;28.60;;;20.32;;
1987;SDS011;12775;46.994;15.498;2023-12-20T09:09:25;24.76;;;21.00;;
1987;SDS011;12775;46.994;15.498;2023-12-20T09:11:53;23.04;;;20.54;;
1987;SDS011;12775;46.994;15.498;2023-12-20T09:14:19;22.56;;;18.44;;
1987;SDS011;12775;46.994;15.498;2023-12-20T09:16:47;24.38;;;20.44;;
1987;SDS011;12775;46.994;15.498;2023-12-20T09:19:14;29.24;;;21.46;;
1987;SDS011;12775;46.994;15.498;2023-12-20T09:21:41;25.94;;;19.08;;
1987;SDS011;12775;46.994;15.498;2023-12-20T09:24:09;26.44;;;21.74;;
1987;SDS011;12775;46.994;15.498;2023-12-20T09:26:36;25.92;;;21.34;;
1987;SDS011;12775;46.994;15.498;2023-12-20T09:29:03;32.92;;;22.66;;
1987;SDS011;12775;46.994;15.498;2023-12-20T09:31:32;33.60;;;27.86;;
1987;SDS011;12775;46.994;15.498;2023-12-20T09:33:59;27.62;;;23.00;;
1987;SDS011;12775;46.994;15.498;2023-12-20T09:36:26;30.62;;;22.76;;
1987;SDS011;12775;46.994;15.498;2023-12-20T09:38:54;32.10;;;20.56;;
1987;SDS011;12775;46.994;15.498;2023-12-20T09:41:22;29.14;;;20.62;;
1987;SDS011;12775;46.994;15.498;2023-12-20T09:43:49;28.82;;;23.50;;
1987;SDS011;12775;46.994;15.498;2023-12-20T09:46:16;26.18;;;19.86;;
1987;SDS011;12775;46.994;15.498;2023-12-20T09:48:43;25.20;;;18.90;;
1987;SDS011;12775;46.994;15.498;2023-12-20T09:51:11;23.26;;;18.82;;
1987;SDS011;12775;46.994;15.498;2023-12-20T09:53:38;25.22;;;19.34;;
1987;SDS011;12775;46.994;15.498;2023-12-20T09:56:05;24.62;;;19.50;;
1987;SDS011;12775;46.994;15.498;2023-12-20T09:58:35;20.64;;;17.88;;
1987;SDS011;12775;46.994;15.498;2023-12-20T10:01:01;19.08;;;16.62;;
1987;SDS011;12775;46.994;15.498;2023-12-20T10:03:29;21.26;;;16.44;;
1987;SDS011;12775;46.994;15.498;2023-12-20T10:05:57;19.82;;;16.52;;
1987;SDS011;12775;46.994;15.498;2023-12-20T10:08:24;18.78;;;15.42;;
1987;SDS011;12775;46.994;15.498;2023-12-20T10:10:51;18.02;;;15.42;;
1987;SDS011;12775;46.994;15.498;2023-12-20T10:13:18;16.26;;;14.12;;
1987;SDS011;12775;46.994;15.498;2023-12-20T10:15:46;20.68;;;17.08;;
1987;SDS011;12775;46.994;15.498;2023-12-20T10:18:13;21.00;;;15.60;;
1987;SDS011;12775;46.994;15.498;2023-12-20T10:20:40;21.80;;;16.14;;
1987;SDS011;12775;46.994;15.498;2023-12-20T10:23:07;26.62;;;16.68;;
1987;SDS011;12775;46.994;15.498;2023-12-20T10:25:34;19.20;;;14.34;;
1987;SDS011;12775;46.994;15.498;2023-12-20T10:30:42;20.98;;;14.66;;
1987;SDS011;12775;46.994;15.498;2023-12-20T10:33:10;20.42;;;16.26;;
1987;SDS011;12775;46.994;15.498;2023-12-20T10:35:37;24.84;;;17.06;;
1987;SDS011;12775;46.994;15.498;2023-12-20T10:38:05;19.26;;;14.96;;
1987;SDS011;12775;46.994;15.498;2023-12-20T10:40:34;20.52;;;14.00;;
1987;SDS011;12775;46.994;15.498;2023-12-20T10:43:01;18.36;;;13.28;;
1987;SDS011;12775;46.994;15.498;2023-12-20T10:45:29;19.04;;;15.28;;
1987;SDS011;12775;46.994;15.498;2023-12-20T10:47:57;15.90;;;12.84;;
1987;SDS011;12775;46.994;15.498;2023-12-20T10:50:26;18.26;;;13.58;;
1987;SDS011;12775;46.994;15.498;2023-12-20T10:52:52;18.66;;;14.66;;
1987;SDS011;12775;46.994;15.498;2023-12-20T10:55:19;17.90;;;12.46;;
1987;SDS011;12775;46.994;15.498;2023-12-20T10:57:47;19.42;;;14.68;;
1987;SDS011;12775;46.994;15.498;2023-12-20T11:00:14;16.66;;;14.66;;
1987;SDS011;12775;46.994;15.498;2023-12-20T11:02:43;16.72;;;13.78;;
1987;SDS011;12775;46.994;15.498;2023-12-20T11:05:18;17.24;;;14.46;;
1987;SDS011;12775;46.994;15.498;2023-12-20T11:07:59;14.80;;;13.30;;
1987;SDS011;12775;46.994;15.498;2023-12-20T11:10:27;14.48;;;12.90;;
1987;SDS011;12775;46.994;15.498;2023-12-20T11:12:54;14.80;;;13.24;;
1987;SDS011;12775;46.994;15.498;2023-12-20T11:15:22;16.82;;;13.08;;
1987;SDS011;12775;46.994;15.498;2023-12-20T11:17:55;17.26;;;14.16;;
1987;SDS011;12775;46.994;15.498;2023-12-20T11:20:22;18.26;;;14.82;;
1987;SDS011;12775;46.994;15.498;2023-12-20T11:22:52;15.54;;;12.62;;
1987;SDS011;12775;46.994;15.498;2023-12-20T11:25:20;17.08;;;13.66;;
1987;SDS011;12775;46.994;15.498;2023-12-20T11:28:06;17.24;;;14.20;;
1987;SDS011;12775;46.994;15.498;2023-12-20T11:30:16;21.22;;;15.34;;
1987;SDS011;12775;46.994;15.498;2023-12-20T11:32:43;18.34;;;15.52;;
1987;SDS011;12775;46.994;15.498;2023-12-20T11:35:18;18.18;;;14.62;;
1987;SDS011;12775;46.994;15.498;2023-12-20T11:37:45;19.40;;;15.16;;
1987;SDS011;12775;46.994;15.498;2023-12-20T11:40:15;17.18;;;14.52;;
1987;SDS011;12775;46.994;15.498;2023-12-20T11:42:43;21.96;;;13.68;;
1987;SDS011;12775;46.994;15.498;2023-12-20T11:45:11;16.54;;;14.80;;
1987;SDS011;12775;46.994;15.498;2023-12-20T11:47:38;21.14;;;14.46;;
1987;SDS011;12775;46.994;15.498;2023-12-20T11:50:05;20.98;;;13.80;;
1987;SDS011;12775;46.994;15.498;2023-12-20T11:52:33;17.68;;;12.80;;
1987;SDS011;12775;46.994;15.498;2023-12-20T11:55:00;15.72;;;13.96;;
1987;SDS011;12775;46.994;15.498;2023-12-20T11:57:27;16.58;;;12.64;;
1987;SDS011;12775;46.994;15.498;2023-12-20T11:59:54;16.02;;;11.64;;
1987;SDS011;12775;46.994;15.498;2023-12-20T12:02:22;20.32;;;13.58;;
1987;SDS011;12775;46.994;15.498;2023-12-20T12:04:49;16.70;;;13.04;;
1987;SDS011;12775;46.994;15.498;2023-12-20T12:07:17;15.58;;;13.26;;
1987;SDS011;12775;46.994;15.498;2023-12-20T12:09:44;20.74;;;16.30;;
1987;SDS011;12775;46.994;15.498;2023-12-20T12:12:12;20.48;;;16.84;;
1987;SDS011;12775;46.994;15.498;2023-12-20T12:14:39;22.68;;;14.42;;
1987;SDS011;12775;46.994;15.498;2023-12-20T12:17:10;13.64;;;12.22;;
1987;SDS011;12775;46.994;15.498;2023-12-20T12:19:38;19.40;;;12.68;;
1987;SDS011;12775;46.994;15.498;2023-12-20T12:22:09;17.18;;;13.78;;
1987;SDS011;12775;46.994;15.498;2023-12-20T12:24:43;18.92;;;14.26;;
1987;SDS011;12775;46.994;15.498;2023-12-20T12:27:10;25.50;;;16.28;;
1987;SDS011;12775;46.994;15.498;2023-12-20T12:29:37;18.72;;;14.86;;
1987;SDS011;12775;46.994;15.498;2023-12-20T12:32:04;20.18;;;15.48;;
1987;SDS011;12775;46.994;15.498;2023-12-20T12:34:31;19.36;;;15.16;;
1987;SDS011;12775;46.994;15.498;2023-12-20T12:36:58;17.68;;;15.78;;
1987;SDS011;12775;46.994;15.498;2023-12-20T12:39:25;18.72;;;16.76;;
1987;SDS011;12775;46.994;15.498;2023-12-20T12:41:52;24.78;;;17.28;;
1987;SDS011;12775;46.994;15.498;2023-12-20T12:44:19;25.12;;;17.72;;
1987;SDS011;12775;46.994;15.498;2023-12-20T12:46:47;19.68;;;16.40;;
1987;SDS011;12775;46.994;15.498;2023-12-20T12:49:15;32.12;;;23.84;;
1987;SDS011;12775;46.994;15.498;2023-12-20T12:51:43;36.38;;;26.86;;
1987;SDS011;12775;46.994;15.498;2023-12-20T12:54:11;19.80;;;17.04;;
1987;SDS011;12775;46.994;15.498;2023-12-20T12:56:38;17.12;;;12.44;;
1987;SDS011;12775;46.994;15.498;2023-12-20T12:59:05;15.96;;;12.86;;
1987;SDS011;12775;46.994;15.498;2023-12-20T13:01:31;16.50;;;13.48;;
1987;SDS011;12775;46.994;15.498;2023-12-20T13:03:58;20.42;;;15.36;;
1987;SDS011;12775;46.994;15.498;2023-12-20T13:06:25;19.68;;;16.44;;
1987;SDS011;12775;46.994;15.498;2023-12-20T13:08:53;18.82;;;15.68;;
1987;SDS011;12775;46.994;15.498;2023-12-20T13:11:20;17.32;;;15.00;;
1987;SDS011;12775;46.994;15.498;2023-12-20T13:13:47;24.64;;;17.40;;
1987;SDS011;12775;46.994;15.498;2023-12-20T13:16:15;30.98;;;15.60;;
1987;SDS011;12775;46.994;15.498;2023-12-20T13:18:42;20.80;;;16.52;;
1987;SDS011;12775;46.994;15.498;2023-12-20T13:21:10;29.86;;;17.86;;
1987;SDS011;12775;46.994;15.498;2023-12-20T13:23:37;19.08;;;17.04;;
1987;SDS011;12775;46.994;15.498;2023-12-20T13:26:04;18.66;;;15.42;;
1987;SDS011;12775;46.994;15.498;2023-12-20T13:28:32;20.78;;;16.16;;
1987;SDS011;12775;46.994;15.498;2023-12-20T13:31:00;22.10;;;17.56;;
1987;SDS011;12775;46.994;15.498;2023-12-20T13:33:28;19.02;;;17.00;;
1987;SDS011;12775;46.994;15.498;2023-12-20T13:35:55;19.24;;;17.30;;
1987;SDS011;12775;46.994;15.498;2023-12-20T13:38:22;20.58;;;16.78;;
1987;SDS011;12775;46.994;15.498;2023-12-20T13:40:49;23.20;;;17.34;;
1987;SDS011;12775;46.994;15.498;2023-12-20T13:43:16;23.12;;;16.90;;
1987;SDS011;12775;46.994;15.498;2023-12-20T13:45:44;18.40;;;16.50;;
1987;SDS011;12775;46.994;15.498;2023-12-20T13:48:11;33.52;;;23.14;;
1987;SDS011;12775;46.994;15.498;2023-12-20T13:50:38;37.36;;;25.56;;
1987;SDS011;12775;46.994;15.498;2023-12-20T13:53:06;22.80;;;18.80;;
1987;SDS011;12775;46.994;15.498;2023-12-20T13:55:33;30.64;;;20.76;;
1987;SDS011;12775;46.994;15.498;2023-12-20T13:58:00;55.02;;;30.68;;
1987;SDS011;12775;46.994;15.498;2023-12-20T14:00:28;47.60;;;28.44;;
1987;SDS011;12775;46.994;15.498;2023-12-20T14:02:56;37.16;;;25.66;;
1987;SDS011;12775;46.994;15.498;2023-12-20T14:05:24;24.70;;;19.68;;
1987;SDS011;12775;46.994;15.498;2023-12-20T14:07:52;25.80;;;20.08;;
1987;SDS011;12775;46.994;15.498;2023-12-20T14:10:18;27.12;;;19.44;;
1987;SDS011;12775;46.994;15.498;2023-12-20T14:12:46;20.68;;;17.14;;
1987;SDS011;12775;46.994;15.498;2023-12-20T14:15:12;19.96;;;16.48;;
1987;SDS011;12775;46.994;15.498;2023-12-20T14:17:39;39.34;;;22.98;;
1987;SDS011;12775;46.994;15.498;2023-12-20T14:20:06;29.04;;;21.84;;
1987;SDS011;12775;46.994;15.498;2023-12-20T14:22:34;34.38;;;22.04;;
1987;SDS011;12775;46.994;15.498;2023-12-20T14:25:02;33.82;;;22.90;;